PST,Max TemperatureF,Mean TemperatureF,Min TemperatureF,Max Dew PointF,MeanDew PointF,Min DewpointF,Max Humidity, Mean Humidity, Min Humidity, Max Sea Level PressureIn, Mean Sea Level PressureIn, Min Sea Level PressureIn, Max VisibilityMiles, Mean VisibilityMiles, Min VisibilityMiles, Max Wind SpeedMPH, Mean Wind SpeedMPH, Max Gust SpeedMPH,PrecipitationIn, CloudCover, Events, WindDirDegrees
2013-1-1,30,28,26,21,20,19,81,75,69,30.68,30.60,30.49,10,10,10,10,3,12,0.00,8,,314
2013-1-2,30,28,25,21,20,18,81,72,63,30.67,30.59,30.50,10,10,10,10,5,12,0.00,8,,352
2013-1-3,27,21,14,21,16,11,88,76,63,30.52,30.45,30.37,10,10,10,13,5,16,0.00,4,,35
2013-1-4,29,24,19,23,19,15,84,77,69,30.49,30.45,30.37,10,10,9,10,4,13,0.00,8,,10
2013-1-5,33,30,27,27,24,21,92,82,72,30.44,30.33,30.24,10,6,1,12,6,14,0.02,8,Snow,53
2013-1-6,30,29,27,27,25,24,92,89,85,30.26,30.17,30.07,6,4,0,10,4,15,T,8,Snow,126
2013-1-7,32,27,22,30,25,19,100,93,85,30.09,29.97,29.85,7,2,0,10,3,12,0.09,8,Fog-Snow,2
2013-1-8,45,33,21,37,32,19,100,91,82,30.14,29.97,29.80,10,4,0,18,6,23,0.16,6,Fog-Rain,165
2013-1-9,49,41,33,37,31,22,79,66,53,29.80,29.72,29.61,10,10,10,28,13,35,0.00,1,,209
2013-1-10,37,33,29,29,19,12,82,63,44,30.02,29.93,29.81,10,10,10,26,13,31,0.00,4,,329
2013-1-11,35,26,17,18,15,11,84,64,44,30.30,30.20,30.02,10,10,10,24,11,31,T,4,,350
2013-1-12,28,22,15,14,12,10,88,72,55,30.43,30.36,30.27,10,10,5,21,5,,0.00,1,,7
2013-1-13,29,22,15,16,14,11,84,69,53,30.53,30.47,30.41,10,10,10,8,3,10,0.00,3,,23
2013-1-14,30,25,20,21,19,17,84,77,69,30.53,30.42,30.32,10,8,6,8,3,10,0.00,5,,355
2013-1-15,32,24,16,21,17,13,92,78,63,30.66,30.61,30.51,10,7,0,10,5,13,0.00,0,Fog,355
2013-1-16,32,27,21,25,22,19,92,82,72,30.67,30.61,30.56,10,8,2,7,1,8,0.00,8,,10
2013-1-17,27,24,20,25,21,16,92,87,81,30.62,30.55,30.39,10,8,2,8,4,10,0.00,8,,323
2013-1-18,29,28,26,25,24,21,92,84,75,30.43,30.37,30.33,8,4,2,8,2,15,T,8,,136
2013-1-19,29,25,21,23,19,16,88,82,75,30.53,30.47,30.37,10,8,4,10,4,13,0.00,5,,3
2013-1-20,26,24,22,22,20,19,92,87,81,30.61,30.54,30.45,10,6,4,10,3,12,0.00,8,,328
2013-1-21,23,23,22,20,19,16,92,87,81,30.49,30.43,30.34,10,8,4,8,3,17,0.00,8,,299
2013-1-22,24,23,22,19,17,16,92,83,74,30.40,30.33,30.25,10,10,6,7,1,9,0.00,8,,25
2013-1-23,27,24,21,21,19,17,92,83,74,30.24,30.11,30.01,10,8,5,10,3,12,T,6,Rain,221
2013-1-24,31,24,16,25,22,13,92,85,78,30.33,30.25,30.16,8,6,4,9,5,17,T,6,,351
2013-1-25,34,31,28,29,26,23,92,84,75,30.18,30.07,29.98,10,5,2,9,2,12,0.01,8,,277
2013-1-26,32,31,30,28,27,26,92,85,78,30.04,29.98,29.94,10,8,2,10,2,13,0.00,8,,238
2013-1-27,33,32,31,28,28,26,92,85,78,30.06,30.01,29.95,10,8,3,8,2,9,0.00,8,,163
2013-1-28,33,31,28,28,26,25,92,82,72,30.00,29.95,29.91,10,8,6,8,3,10,0.00,5,,324
2013-1-29,41,34,26,29,27,23,92,76,59,30.23,30.14,29.94,10,9,7,10,3,13,0.00,2,,353
2013-1-30,55,41,27,35,29,24,85,65,45,30.27,30.21,30.16,10,10,8,10,4,10,0.00,0,,150
2013-1-31,40,34,27,34,30,24,92,86,79,30.31,30.27,30.23,10,10,8,12,2,15,0.00,3,,350